Time;durP1;ratioP1;P1;durP2;ratioP2;P2;SDS_P1;SDS_P2;PMS_P1;PMS_P2;Temp;Humidity;BMP_temperature;BMP_pressure;BME280_temperature;BME280_humidity;BME280_pressure;Samples;Min_cycle;Max_cycle;Signal;HPM_P1;HPM_P2
2022/04/11 00:00:59;;;;;;;14.57;6.03;;;;;;;;;;8236679;28;20069;-73
2022/04/11 00:05:04;;;;;;;17.02;7.45;;;;;;;;;;8236665;28;20043;-73
2022/04/11 00:09:06;;;;;;;18.73;5.85;;;;;;;;;;8236494;28;20543;-74
2022/04/11 00:13:09;;;;;;;13.43;6.57;;;;;;;;;;8236415;28;20047;-74
2022/04/11 00:17:11;;;;;;;12.13;6.25;;;;;;;;;;8235717;28;20050;-73
2022/04/11 00:21:15;;;;;;;17.55;6.28;;;;;;;;;;8236139;28;20053;-74
2022/04/11 00:25:18;;;;;;;11.50;5.32;;;;;;;;;;8235459;28;20058;-73
2022/04/11 00:29:20;;;;;;;13.80;5.60;;;;;;;;;;8235308;28;20101;-74
2022/04/11 00:33:23;;;;;;;16.05;7.25;;;;;;;;;;8235771;28;20406;-73
2022/04/11 00:37:27;;;;;;;11.00;5.22;;;;;;;;;;8235011;28;20055;-73
2022/04/11 00:41:29;;;;;;;12.02;5.55;;;;;;;;;;8234989;28;20059;-73
2022/04/11 00:45:32;;;;;;;12.40;5.63;;;;;;;;;;8234947;28;20057;-74
2022/04/11 00:49:35;;;;;;;10.63;5.50;;;;;;;;;;8235032;28;20050;-73
2022/04/11 00:53:42;;;;;;;10.05;5.43;;;;;;;;;;8234829;28;20049;-73
2022/04/11 00:57:45;;;;;;;8.90;4.75;;;;;;;;;;8235036;28;20050;-73
2022/04/11 01:01:49;;;;;;;10.13;5.75;;;;;;;;;;8234428;28;20051;-73
2022/04/11 01:05:51;;;;;;;10.57;5.07;;;;;;;;;;8234317;28;20456;-73
2022/04/11 01:09:56;;;;;;;13.10;6.18;;;;;;;;;;8233038;28;20070;-73
2022/04/11 01:13:59;;;;;;;15.38;6.38;;;;;;;;;;8230936;28;20050;-74
2022/04/11 01:18:01;;;;;;;10.85;5.57;;;;;;;;;;8233375;28;20054;-73
2022/04/11 01:22:06;;;;;;;15.93;7.55;;;;;;;;;;8221681;28;20054;-74
2022/04/11 01:26:08;;;;;;;21.45;9.88;;;;;;;;;;8214792;28;20050;-77
2022/04/11 01:30:13;;;;;;;15.57;7.20;;;;;;;;;;8232498;28;20042;-74
2022/04/11 01:34:16;;;;;;;16.90;6.20;;;;;;;;;;8224445;28;20046;-74
2022/04/11 01:38:20;;;;;;;18.30;6.78;;;;;;;;;;8232533;28;20047;-74
2022/04/11 01:42:23;;;;;;;13.90;6.60;;;;;;;;;;8232199;28;20395;-75
2022/04/11 01:46:25;;;;;;;12.25;5.85;;;;;;;;;;8229988;28;20043;-75
2022/04/11 01:50:28;;;;;;;22.65;8.40;;;;;;;;;;8231696;28;20483;-75
2022/04/11 01:54:32;;;;;;;12.30;6.68;;;;;;;;;;8230979;28;20070;-75
2022/04/11 01:58:34;;;;;;;14.57;6.28;;;;;;;;;;8231368;28;20057;-74
2022/04/11 02:02:37;;;;;;;15.48;8.02;;;;;;;;;;8230691;28;20053;-74
2022/04/11 02:06:40;;;;;;;13.48;7.57;;;;;;;;;;8223696;28;20051;-74
2022/04/11 02:10:44;;;;;;;17.48;8.40;;;;;;;;;;8233213;28;20046;-74
2022/04/11 02:14:46;;;;;;;20.95;7.10;;;;;;;;;;8227508;28;20039;-75
2022/04/11 02:18:48;;;;;;;;;;;;;;;;;;8230066;28;20066;-75
2022/04/11 02:22:53;;;;;;;18.35;7.13;;;;;;;;;;8238577;28;19929;-74
2022/04/11 02:26:57;;;;;;;14.52;7.30;;;;;;;;;;8235309;28;20510;-75
2022/04/11 02:30:59;;;;;;;14.20;6.70;;;;;;;;;;8238459;28;20054;-75
2022/04/11 02:35:02;;;;;;;19.73;7.88;;;;;;;;;;8238951;28;20145;-74
2022/04/11 02:39:05;;;;;;;26.02;10.32;;;;;;;;;;8238824;28;20046;-75
2022/04/11 02:43:08;;;;;;;22.08;11.15;;;;;;;;;;8238741;28;20050;-74
2022/04/11 02:47:11;;;;;;;24.45;11.25;;;;;;;;;;8239041;28;20395;-75
2022/04/11 02:51:13;;;;;;;35.88;16.60;;;;;;;;;;8238433;28;20058;-75
2022/04/11 02:55:16;;;;;;;44.40;22.45;;;;;;;;;;8263470;28;20475;-74
2022/04/11 02:59:20;;;;;;;43.70;22.00;;;;;;;;;;8270627;28;20046;-75
2022/04/11 03:03:22;;;;;;;41.97;19.52;;;;;;;;;;8260739;28;20057;-75
2022/04/11 03:07:27;;;;;;;28.77;12.48;;;;;;;;;;8238339;28;20384;-75
2022/04/11 03:11:30;;;;;;;22.77;10.65;;;;;;;;;;8238734;28;20046;-75
2022/04/11 03:15:33;;;;;;;26.58;11.05;;;;;;;;;;8237741;28;20047;-75
2022/04/11 03:19:36;;;;;;;27.90;12.70;;;;;;;;;;8237458;28;20051;-75
2022/04/11 03:23:38;;;;;;;24.55;11.60;;;;;;;;;;8237273;28;20055;-75
2022/04/11 03:27:41;;;;;;;24.58;11.32;;;;;;;;;;8237296;28;20061;-74
2022/04/11 03:31:46;;;;;;;25.08;12.07;;;;;;;;;;8237798;28;20055;-75
2022/04/11 03:35:49;;;;;;;21.80;10.90;;;;;;;;;;8237080;28;20055;-74
2022/04/11 03:39:51;;;;;;;27.98;11.30;;;;;;;;;;8237064;28;20055;-75
2022/04/11 03:43:54;;;;;;;26.65;12.85;;;;;;;;;;8237377;28;20050;-75
2022/04/11 03:47:57;;;;;;;22.15;12.30;;;;;;;;;;8237334;28;20472;-74
2022/04/11 03:52:00;;;;;;;29.98;14.20;;;;;;;;;;8236604;28;20050;-75
2022/04/11 03:56:02;;;;;;;30.00;13.02;;;;;;;;;;8236746;28;20062;-74
2022/04/11 04:00:08;;;;;;;35.03;14.05;;;;;;;;;;8236586;28;20510;-74
2022/04/11 04:04:11;;;;;;;37.22;16.92;;;;;;;;;;8236784;28;20074;-74
2022/04/11 04:08:17;;;;;;;28.40;11.80;;;;;;;;;;8236754;28;20051;-74
2022/04/11 04:12:20;;;;;;;25.55;10.18;;;;;;;;;;8235965;28;20125;-75
2022/04/11 04:16:23;;;;;;;19.63;9.38;;;;;;;;;;8235787;28;20050;-75
2022/04/11 04:20:27;;;;;;;18.77;9.25;;;;;;;;;;8236176;28;20475;-75
2022/04/11 04:24:29;;;;;;;22.67;9.88;;;;;;;;;;8234858;28;20112;-75
2022/04/11 04:28:32;;;;;;;17.27;8.07;;;;;;;;;;8235660;28;20118;-76
2022/04/11 04:32:35;;;;;;;21.98;9.45;;;;;;;;;;8235346;28;20051;-75
2022/04/11 04:36:38;;;;;;;24.30;9.65;;;;;;;;;;8235623;28;20483;-75
2022/04/11 04:40:41;;;;;;;23.45;11.38;;;;;;;;;;8235468;28;20054;-75
2022/04/11 04:44:43;;;;;;;24.77;9.77;;;;;;;;;;8235456;28;20455;-75
2022/04/11 04:48:46;;;;;;;22.05;9.80;;;;;;;;;;8234965;28;20082;-74
2022/04/11 04:52:50;;;;;;;25.13;10.63;;;;;;;;;;8234813;28;20571;-75
2022/04/11 04:56:53;;;;;;;32.55;12.98;;;;;;;;;;8234888;28;20498;-75
2022/04/11 05:00:55;;;;;;;24.77;11.38;;;;;;;;;;8234788;28;20054;-75
2022/04/11 05:05:04;;;;;;;32.75;15.23;;;;;;;;;;8234843;28;20491;-75
2022/04/11 05:09:08;;;;;;;31.58;14.80;;;;;;;;;;8234303;28;20051;-74
2022/04/11 05:13:11;;;;;;;30.25;14.52;;;;;;;;;;8234698;28;20407;-75
2022/04/11 05:17:13;;;;;;;22.95;11.93;;;;;;;;;;8233918;28;20051;-75
2022/04/11 05:21:16;;;;;;;26.70;11.82;;;;;;;;;;8233884;28;20129;-74
2022/04/11 05:25:20;;;;;;;21.60;10.30;;;;;;;;;;8233710;28;20054;-74
2022/04/11 05:29:23;;;;;;;21.67;10.32;;;;;;;;;;8234224;28;20512;-74
2022/04/11 05:33:26;;;;;;;25.48;11.15;;;;;;;;;;8233473;28;20046;-74
2022/04/11 05:37:29;;;;;;;26.35;11.23;;;;;;;;;;8232693;28;20062;-74
2022/04/11 05:41:33;;;;;;;24.35;9.95;;;;;;;;;;8233186;28;20462;-74
2022/04/11 05:45:36;;;;;;;20.58;10.18;;;;;;;;;;8233076;28;20043;-74
2022/04/11 05:49:40;;;;;;;17.48;9.60;;;;;;;;;;8232055;28;20035;-74
2022/04/11 05:53:42;;;;;;;20.00;10.27;;;;;;;;;;8232889;28;20046;-74
2022/04/11 05:57:47;;;;;;;27.00;11.23;;;;;;;;;;8232430;28;20042;-74
2022/04/11 06:01:50;;;;;;;21.48;11.52;;;;;;;;;;8210839;28;21034;-74
2022/04/11 06:05:59;;;;;;;20.65;11.00;;;;;;;;;;8230061;28;20419;-75
2022/04/11 06:10:08;;;;;;;29.75;12.77;;;;;;;;;;8233125;28;20047;-73
2022/04/11 06:14:12;;;;;;;23.70;12.63;;;;;;;;;;8233244;28;20080;-74
2022/04/11 06:18:15;;;;;;;21.95;11.73;;;;;;;;;;8231766;28;20569;-74
2022/04/11 06:22:18;;;;;;;23.95;12.35;;;;;;;;;;8231958;28;20047;-74
2022/04/11 06:26:21;;;;;;;24.08;13.65;;;;;;;;;;8232871;28;20089;-74
2022/04/11 06:30:25;;;;;;;22.92;12.07;;;;;;;;;;8233039;28;20047;-75
2022/04/11 06:34:29;;;;;;;18.80;10.48;;;;;;;;;;8233010;28;20046;-75
2022/04/11 06:38:31;;;;;;;13.93;8.38;;;;;;;;;;8232505;28;20061;-75
2022/04/11 06:42:34;;;;;;;21.25;10.27;;;;;;;;;;8232960;28;20109;-76
2022/04/11 06:46:38;;;;;;;20.25;11.10;;;;;;;;;;8236202;28;20046;-75
2022/04/11 06:50:42;;;;;;;20.77;10.40;;;;;;;;;;8239008;28;20467;-75
2022/04/11 06:54:46;;;;;;;17.13;10.05;;;;;;;;;;8259016;28;20054;-75
2022/04/11 06:58:48;;;;;;;13.45;8.85;;;;;;;;;;8270800;28;20490;-75
2022/04/11 07:02:52;;;;;;;14.18;8.82;;;;;;;;;;8264696;28;20050;-75
2022/04/11 07:06:55;;;;;;;14.40;8.32;;;;;;;;;;8238108;28;20054;-75
2022/04/11 07:10:58;;;;;;;14.23;7.72;;;;;;;;;;8234798;28;20054;-75
2022/04/11 07:15:03;;;;;;;13.52;7.75;;;;;;;;;;8235606;28;20443;-76
2022/04/11 07:19:07;;;;;;;14.88;7.78;;;;;;;;;;8235902;28;20051;-76
2022/04/11 07:23:10;;;;;;;13.93;7.88;;;;;;;;;;8233145;28;20491;-76
2022/04/11 07:27:12;;;;;;;13.93;6.65;;;;;;;;;;8229860;28;20043;-75
2022/04/11 07:31:16;;;;;;;12.20;6.63;;;;;;;;;;8231610;28;20046;-76
2022/04/11 07:35:20;;;;;;;11.65;7.32;;;;;;;;;;8235258;28;20131;-75
2022/04/11 07:39:23;;;;;;;14.18;7.32;;;;;;;;;;8237326;28;20058;-76
2022/04/11 07:43:26;;;;;;;15.15;7.47;;;;;;;;;;8237447;28;20046;-75
2022/04/11 07:47:29;;;;;;;13.02;6.85;;;;;;;;;;8237010;28;20384;-75
2022/04/11 07:51:34;;;;;;;12.30;6.65;;;;;;;;;;8236750;28;20053;-75
2022/04/11 07:55:37;;;;;;;16.52;6.13;;;;;;;;;;8236783;28;20506;-75
2022/04/11 07:59:39;;;;;;;16.33;6.60;;;;;;;;;;8235492;28;20051;-75
2022/04/11 08:03:43;;;;;;;10.23;5.35;;;;;;;;;;8236786;28;20057;-75
2022/04/11 08:07:47;;;;;;;10.05;5.80;;;;;;;;;;8236025;28;20053;-74
2022/04/11 08:11:50;;;;;;;9.30;5.13;;;;;;;;;;8236141;28;20132;-75
2022/04/11 08:15:53;;;;;;;10.50;4.47;;;;;;;;;;8235908;28;20057;-75
2022/04/11 08:19:56;;;;;;;9.88;4.72;;;;;;;;;;8235711;28;20407;-75
2022/04/11 08:24:00;;;;;;;9.02;4.95;;;;;;;;;;8235405;28;20062;-75
2022/04/11 08:28:03;;;;;;;10.50;4.88;;;;;;;;;;8235747;28;20058;-75
2022/04/11 08:32:07;;;;;;;6.97;3.95;;;;;;;;;;8235601;28;20099;-75
2022/04/11 08:36:10;;;;;;;8.77;3.92;;;;;;;;;;8235714;28;20085;-75
2022/04/11 08:40:15;;;;;;;9.15;4.65;;;;;;;;;;8235490;28;20051;-75
2022/04/11 08:44:20;;;;;;;104.38;48.30;;;;;;;;;;8235632;28;20062;-76
2022/04/11 08:48:23;;;;;;;23.23;11.95;;;;;;;;;;8234887;28;20051;-75
2022/04/11 08:52:28;;;;;;;11.13;4.07;;;;;;;;;;8234854;28;20057;-74
2022/04/11 08:56:33;;;;;;;7.97;4.03;;;;;;;;;;8234661;28;20058;-74
2022/04/11 09:00:37;;;;;;;11.85;4.22;;;;;;;;;;8235245;28;20054;-74
2022/04/11 09:04:54;;;;;;;10.60;4.22;;;;;;;;;;8234370;28;20101;-74
2022/04/11 09:08:58;;;;;;;8.05;4.50;;;;;;;;;;8234716;28;20553;-75
2022/04/11 09:13:06;;;;;;;15.90;7.50;;;;;;;;;;8234143;28;20051;-75
2022/04/11 09:17:10;;;;;;;9.70;3.92;;;;;;;;;;8234515;28;20122;-74
2022/04/11 09:21:13;;;;;;;13.25;4.38;;;;;;;;;;8234124;28;20521;-74
2022/04/11 09:25:18;;;;;;;5.45;2.53;;;;;;;;;;8233713;28;20451;-74
2022/04/11 09:29:24;;;;;;;8.43;3.25;;;;;;;;;;8234263;28;20402;-75
2022/04/11 09:33:28;;;;;;;6.82;2.80;;;;;;;;;;8234118;28;20479;-75
2022/04/11 09:37:30;;;;;;;8.77;4.85;;;;;;;;;;8233523;28;20074;-75
2022/04/11 09:41:34;;;;;;;10.43;3.25;;;;;;;;;;8233573;28;20055;-75
2022/04/11 09:45:46;;;;;;;9.35;3.67;;;;;;;;;;8233572;28;20093;-75
2022/04/11 09:49:49;;;;;;;7.70;2.85;;;;;;;;;;8234125;28;20058;-74
2022/04/11 09:53:51;;;;;;;7.97;2.70;;;;;;;;;;8234021;28;20050;-74
2022/04/11 09:57:54;;;;;;;4.90;2.42;;;;;;;;;;8233260;28;20157;-74
2022/04/11 10:01:58;;;;;;;6.68;3.45;;;;;;;;;;8233374;28;20058;-74
2022/04/11 10:06:02;;;;;;;14.40;6.30;;;;;;;;;;8233190;28;20117;-75
2022/04/11 10:10:08;;;;;;;6.20;3.08;;;;;;;;;;8233336;28;20403;-74
2022/04/11 10:14:12;;;;;;;7.10;3.53;;;;;;;;;;8233658;28;20484;-74
2022/04/11 10:18:21;;;;;;;11.23;2.63;;;;;;;;;;8232819;28;20055;-74
2022/04/11 10:22:29;;;;;;;11.02;4.28;;;;;;;;;;8238067;28;20301;-75
2022/04/11 10:26:44;;;;;;;136.65;60.38;;;;;;;;;;8239354;28;20047;-74
2022/04/11 10:31:05;;;;;;;6.18;3.40;;;;;;;;;;8239756;28;20479;-74
2022/04/11 10:35:10;;;;;;;11.45;5.82;;;;;;;;;;8239457;28;20186;-74
2022/04/11 10:39:26;;;;;;;6.07;2.90;;;;;;;;;;8238793;28;20097;-75
2022/04/11 10:43:29;;;;;;;4.68;2.50;;;;;;;;;;8238813;28;20050;-75
2022/04/11 10:47:35;;;;;;;11.73;6.50;;;;;;;;;;8238656;28;20129;-74
2022/04/11 10:51:42;;;;;;;7.40;3.22;;;;;;;;;;8239030;28;20047;-75
2022/04/11 10:56:04;;;;;;;11.75;5.03;;;;;;;;;;8266962;28;20550;-75
2022/04/11 11:00:08;;;;;;;;;;;;;;;;;;8270881;28;20050;-75
2022/04/11 11:04:21;;;;;;;5.88;2.83;;;;;;;;;;8253969;28;19922;-75
2022/04/11 11:08:33;;;;;;;7.07;4.10;;;;;;;;;;8238409;28;20138;-75
2022/04/11 11:12:36;;;;;;;5.60;3.17;;;;;;;;;;8238810;28;20047;-75
2022/04/11 11:16:59;;;;;;;4.50;2.92;;;;;;;;;;8237766;28;20054;-75
2022/04/11 11:21:02;;;;;;;7.32;3.13;;;;;;;;;;8237596;28;20290;-75
2022/04/11 11:25:19;;;;;;;4.70;2.75;;;;;;;;;;8237327;28;20470;-77
2022/04/11 11:29:25;;;;;;;5.22;3.25;;;;;;;;;;8237903;28;20054;-74
2022/04/11 11:33:28;;;;;;;7.88;4.57;;;;;;;;;;8236000;28;20047;-77
2022/04/11 11:37:32;;;;;;;39.70;20.63;;;;;;;;;;8237134;28;20049;-74
2022/04/11 11:41:37;;;;;;;29.45;13.50;;;;;;;;;;8236987;28;20047;-74
2022/04/11 11:45:41;;;;;;;7.70;3.47;;;;;;;;;;8236883;28;20074;-77
2022/04/11 11:49:45;;;;;;;6.00;2.75;;;;;;;;;;8236801;28;20053;-74
2022/04/11 11:53:51;;;;;;;5.03;3.05;;;;;;;;;;8236802;28;20053;-74
2022/04/11 11:58:06;;;;;;;5.55;3.08;;;;;;;;;;8236956;28;20057;-74
2022/04/11 12:06:29;;;;;;;13.00;3.65;;;;;;;;;;8236166;28;20174;-74
2022/04/11 12:10:33;;;;;;;3.92;2.45;;;;;;;;;;8236027;28;20046;-74
2022/04/11 12:15:01;;;;;;;6.05;3.33;;;;;;;;;;8236048;28;20483;-73
2022/04/11 12:19:06;;;;;;;3.95;2.67;;;;;;;;;;8236033;28;20128;-74
2022/04/11 12:23:10;;;;;;;10.38;3.70;;;;;;;;;;8235510;28;20063;-74
2022/04/11 12:27:24;;;;;;;5.35;2.90;;;;;;;;;;8236243;28;20492;-74
2022/04/11 12:31:29;;;;;;;4.10;2.30;;;;;;;;;;8235042;28;20062;-74
2022/04/11 12:35:32;;;;;;;7.53;2.75;;;;;;;;;;8233930;28;20050;-75
2022/04/11 12:39:51;;;;;;;6.45;3.30;;;;;;;;;;8235125;28;20054;-75
2022/04/11 12:44:08;;;;;;;5.22;2.92;;;;;;;;;;8233998;28;20462;-76
2022/04/11 12:48:13;;;;;;;7.07;3.17;;;;;;;;;;8234661;28;20054;-76
2022/04/11 12:52:18;;;;;;;5.32;3.10;;;;;;;;;;8235333;28;20062;-75
2022/04/11 12:56:21;;;;;;;8.48;3.00;;;;;;;;;;8234514;28;20137;-76
2022/04/11 13:00:26;;;;;;;5.90;3.20;;;;;;;;;;8234929;28;20585;-75
2022/04/11 13:04:30;;;;;;;6.43;3.45;;;;;;;;;;8201018;28;20134;-75
2022/04/11 13:08:34;;;;;;;8.25;2.97;;;;;;;;;;8234312;28;20133;-75
2022/04/11 13:12:36;;;;;;;5.78;3.03;;;;;;;;;;8234666;28;20053;-76
2022/04/11 13:21:01;;;;;;;6.22;3.80;;;;;;;;;;8234042;28;20109;-76
2022/04/11 13:25:08;;;;;;;7.55;4.18;;;;;;;;;;8233668;28;20117;-76
2022/04/11 13:29:13;;;;;;;8.85;4.70;;;;;;;;;;8234338;28;20042;-76
2022/04/11 13:33:18;;;;;;;7.15;3.50;;;;;;;;;;8234067;28;20039;-76
2022/04/11 13:37:23;;;;;;;6.05;3.33;;;;;;;;;;8233651;28;20053;-76
2022/04/11 13:41:29;;;;;;;9.25;3.72;;;;;;;;;;8231868;28;20049;-76
2022/04/11 13:45:32;;;;;;;5.40;3.20;;;;;;;;;;8229963;28;20046;-76
2022/04/11 13:49:35;;;;;;;6.00;2.92;;;;;;;;;;8233098;28;20058;-75
2022/04/11 13:53:40;;;;;;;6.57;3.60;;;;;;;;;;8233348;28;20047;-76
2022/04/11 13:57:43;;;;;;;6.50;3.72;;;;;;;;;;8232585;28;20119;-76
2022/04/11 14:01:47;;;;;;;8.57;4.05;;;;;;;;;;8233238;28;20097;-75
2022/04/11 14:05:51;;;;;;;5.28;3.10;;;;;;;;;;8233247;28;20070;-75
2022/04/11 14:09:56;;;;;;;6.03;3.28;;;;;;;;;;8231570;28;20415;-76
2022/04/11 14:14:00;;;;;;;6.15;3.03;;;;;;;;;;8232317;28;20392;-75
2022/04/11 14:18:06;;;;;;;6.22;3.40;;;;;;;;;;8223514;28;20045;-75
2022/04/11 14:22:10;;;;;;;8.10;4.43;;;;;;;;;;8232436;28;20050;-75
2022/04/11 14:26:19;;;;;;;8.38;4.30;;;;;;;;;;8229580;28;20133;-75
2022/04/11 14:30:25;;;;;;;6.80;3.95;;;;;;;;;;8231773;28;20050;-75
2022/04/11 14:34:28;;;;;;;9.70;4.10;;;;;;;;;;8232597;28;20039;-75
2022/04/11 14:38:34;;;;;;;9.85;5.15;;;;;;;;;;8232355;28;20046;-75
2022/04/11 14:42:41;;;;;;;6.30;3.67;;;;;;;;;;8230521;28;20047;-75
2022/04/11 14:46:44;;;;;;;11.05;4.18;;;;;;;;;;8231261;28;20525;-75
2022/04/11 14:50:51;;;;;;;13.13;6.70;;;;;;;;;;8231560;28;20475;-75
2022/04/11 14:55:04;;;;;;;14.65;5.78;;;;;;;;;;8240589;28;20108;-75
2022/04/11 14:59:21;;;;;;;6.05;4.07;;;;;;;;;;8263846;28;20038;-75
2022/04/11 15:03:40;;;;;;;9.10;5.10;;;;;;;;;;8236242;28;20047;-75
2022/04/11 15:08:00;;;;;;;6.38;3.58;;;;;;;;;;8235131;28;20043;-76
2022/04/11 15:12:23;;;;;;;7.68;4.05;;;;;;;;;;8236459;28;20614;-74
2022/04/11 15:16:48;;;;;;;6.57;3.50;;;;;;;;;;8237345;28;20406;-76
2022/04/11 15:21:05;;;;;;;17.55;10.80;;;;;;;;;;8227856;28;20054;-75
2022/04/11 15:25:26;;;;;;;25.27;11.38;;;;;;;;;;8228232;28;20051;-75
2022/04/11 15:29:35;;;;;;;15.35;7.07;;;;;;;;;;8232917;28;20117;-75
2022/04/11 15:34:05;;;;;;;28.90;12.48;;;;;;;;;;8231013;28;20058;-75
2022/04/11 15:38:23;;;;;;;12.75;5.70;;;;;;;;;;8232430;28;20480;-75
2022/04/11 15:42:34;;;;;;;20.83;12.40;;;;;;;;;;8234309;28;20054;-76
2022/04/11 15:47:23;;;;;;;14.18;9.13;;;;;;;;;;8224948;28;20058;-75
2022/04/11 15:51:44;;;;;;;13.43;7.75;;;;;;;;;;8232456;28;20402;-74
2022/04/11 15:56:11;;;;;;;8.70;5.30;;;;;;;;;;8235407;28;20403;-76
2022/04/11 16:00:50;;;;;;;12.48;6.78;;;;;;;;;;8229238;28;20065;-75
2022/04/11 16:04:57;;;;;;;16.48;8.85;;;;;;;;;;8229263;28;20105;-75
2022/04/11 16:09:05;;;;;;;19.48;9.90;;;;;;;;;;8235832;28;20047;-75
2022/04/11 16:13:08;;;;;;;30.73;13.32;;;;;;;;;;8235108;28;20070;-74
2022/04/11 16:17:13;;;;;;;26.63;12.07;;;;;;;;;;8234421;28;20046;-74
2022/04/11 16:21:16;;;;;;;53.35;21.55;;;;;;;;;;8234119;28;20098;-74
2022/04/11 16:25:21;;;;;;;24.20;10.70;;;;;;;;;;8233752;28;20109;-74
2022/04/11 16:29:23;;;;;;;32.00;13.25;;;;;;;;;;8233434;28;20093;-74
2022/04/11 16:33:28;;;;;;;48.60;19.98;;;;;;;;;;8234429;28;20046;-74
2022/04/11 16:37:32;;;;;;;26.92;11.88;;;;;;;;;;8234427;28;20047;-73
2022/04/11 16:41:37;;;;;;;86.75;29.95;;;;;;;;;;8234035;28;20586;-73
2022/04/11 16:45:39;;;;;;;66.95;23.98;;;;;;;;;;8226783;28;20043;-73
2022/04/11 16:49:42;;;;;;;58.55;20.77;;;;;;;;;;8227865;28;20058;-74
2022/04/11 16:53:46;;;;;;;41.10;15.32;;;;;;;;;;8234465;28;20438;-74
2022/04/11 16:57:50;;;;;;;163.02;56.58;;;;;;;;;;8234160;28;20047;-74
2022/04/11 17:01:53;;;;;;;24.10;11.70;;;;;;;;;;8234106;28;20471;-74
2022/04/11 17:05:57;;;;;;;26.90;12.02;;;;;;;;;;8233617;28;20074;-73
2022/04/11 17:10:00;;;;;;;25.27;11.73;;;;;;;;;;8233191;28;20054;-74
2022/04/11 17:14:06;;;;;;;17.73;9.18;;;;;;;;;;8233538;28;20050;-73
2022/04/11 17:22:29;;;;;;;16.90;9.65;;;;;;;;;;8232198;28;20051;-75
2022/04/11 17:26:34;;;;;;;43.20;19.35;;;;;;;;;;8230573;28;20101;-74
2022/04/11 17:30:38;;;;;;;48.88;20.17;;;;;;;;;;8228963;28;20944;-74
2022/04/11 17:34:41;;;;;;;16.55;8.70;;;;;;;;;;8233455;28;20049;-74
2022/04/11 17:38:45;;;;;;;61.10;27.83;;;;;;;;;;8233615;28;20051;-74
2022/04/11 17:42:49;;;;;;;16.42;8.68;;;;;;;;;;8223306;28;20078;-75
2022/04/11 17:46:54;;;;;;;19.20;9.43;;;;;;;;;;8220439;28;20047;-75
2022/04/11 17:50:57;;;;;;;16.80;8.65;;;;;;;;;;8232070;28;20590;-74
2022/04/11 17:55:01;;;;;;;20.77;10.82;;;;;;;;;;8232322;28;20073;-74
2022/04/11 17:59:04;;;;;;;34.67;16.42;;;;;;;;;;8232610;28;20050;-74
2022/04/11 18:03:09;;;;;;;34.60;14.68;;;;;;;;;;8232394;28;20047;-74
2022/04/11 18:07:12;;;;;;;20.63;9.85;;;;;;;;;;8232038;28;20129;-75
2022/04/11 18:11:15;;;;;;;12.10;7.03;;;;;;;;;;8232088;28;20116;-73
2022/04/11 18:15:19;;;;;;;19.92;9.13;;;;;;;;;;8199307;28;20055;-75
2022/04/11 18:19:23;;;;;;;28.88;14.82;;;;;;;;;;8215889;28;20043;-74
2022/04/11 18:23:30;;;;;;;14.20;8.50;;;;;;;;;;8200769;28;20063;-75
2022/04/11 18:27:41;;;;;;;34.55;17.42;;;;;;;;;;8230431;28;20062;-75
2022/04/11 18:31:49;;;;;;;15.47;9.13;;;;;;;;;;8228901;28;20432;-75
2022/04/11 18:36:02;;;;;;;25.23;11.60;;;;;;;;;;8217001;28;20044;-75
2022/04/11 18:40:10;;;;;;;21.60;11.05;;;;;;;;;;8227457;28;20093;-75
2022/04/11 18:44:29;;;;;;;26.55;13.73;;;;;;;;;;8225610;28;20486;-74
2022/04/11 18:48:38;;;;;;;17.02;9.60;;;;;;;;;;8221632;28;20042;-75
2022/04/11 18:52:47;;;;;;;28.98;13.10;;;;;;;;;;8224634;28;20415;-75
2022/04/11 18:56:52;;;;;;;21.45;11.10;;;;;;;;;;8221266;28;20047;-74
2022/04/11 19:00:56;;;;;;;45.80;22.80;;;;;;;;;;8221167;28;20055;-75
2022/04/11 19:05:00;;;;;;;12.38;7.40;;;;;;;;;;8238427;28;20051;-74
2022/04/11 19:09:05;;;;;;;11.70;5.75;;;;;;;;;;8219089;28;20109;-74
2022/04/11 19:13:08;;;;;;;8.23;5.30;;;;;;;;;;8224392;28;20105;-75
2022/04/11 19:17:11;;;;;;;11.63;5.60;;;;;;;;;;8223325;28;20047;-75
2022/04/11 19:21:17;;;;;;;8.20;4.47;;;;;;;;;;8222620;28;20070;-75
2022/04/11 19:25:30;;;;;;;16.05;9.07;;;;;;;;;;8225371;28;20051;-74
2022/04/11 19:29:44;;;;;;;13.70;6.25;;;;;;;;;;8224227;28;20049;-75
2022/04/11 19:34:07;;;;;;;16.20;6.53;;;;;;;;;;8222789;28;20062;-74
2022/04/11 19:38:13;;;;;;;23.48;13.25;;;;;;;;;;8230378;28;20059;-75
2022/04/11 19:42:17;;;;;;;20.95;10.98;;;;;;;;;;8219569;28;20046;-75
2022/04/11 19:46:21;;;;;;;30.48;15.85;;;;;;;;;;8226241;28;20052;-74
2022/04/11 19:50:24;;;;;;;18.55;9.25;;;;;;;;;;8224125;28;20141;-74
2022/04/11 19:54:28;;;;;;;23.35;10.75;;;;;;;;;;8217331;28;20086;-74
2022/04/11 19:58:32;;;;;;;27.80;14.43;;;;;;;;;;8223548;28;20082;-74
2022/04/11 20:02:35;;;;;;;32.75;13.45;;;;;;;;;;8218883;28;20483;-74
2022/04/11 20:06:38;;;;;;;32.58;15.35;;;;;;;;;;8222506;28;20047;-73
2022/04/11 20:10:42;;;;;;;32.33;15.45;;;;;;;;;;8219415;28;20479;-74
2022/04/11 20:14:47;;;;;;;36.85;15.23;;;;;;;;;;8224788;28;20395;-75
2022/04/11 20:18:52;;;;;;;331.05;96.00;;;;;;;;;;8219225;28;20043;-75
2022/04/11 20:22:59;;;;;;;79.68;29.45;;;;;;;;;;8216874;28;20090;-74
2022/04/11 20:27:05;;;;;;;88.75;29.58;;;;;;;;;;8217784;28;20494;-74
2022/04/11 20:31:14;;;;;;;87.70;29.35;;;;;;;;;;8218966;28;20074;-74
2022/04/11 20:35:23;;;;;;;31.42;16.23;;;;;;;;;;8219902;28;20043;-75
2022/04/11 20:39:28;;;;;;;17.98;8.75;;;;;;;;;;8215073;28;20042;-75
2022/04/11 20:43:34;;;;;;;15.50;8.40;;;;;;;;;;8216494;28;20039;-74
2022/04/11 20:47:42;;;;;;;15.45;8.98;;;;;;;;;;8218462;28;20043;-75
2022/04/11 20:51:45;;;;;;;15.73;8.38;;;;;;;;;;8220981;28;20047;-76
2022/04/11 20:55:49;;;;;;;18.30;9.70;;;;;;;;;;8216715;28;20058;-74
2022/04/11 20:59:52;;;;;;;20.35;10.68;;;;;;;;;;8216398;28;20476;-74
2022/04/11 21:03:57;;;;;;;13.60;7.13;;;;;;;;;;8217486;28;20055;-75
2022/04/11 21:08:03;;;;;;;15.30;7.20;;;;;;;;;;8217543;28;20055;-74
2022/04/11 21:12:08;;;;;;;19.58;9.95;;;;;;;;;;8208019;28;20043;-74
2022/04/11 21:16:11;;;;;;;15.13;7.78;;;;;;;;;;8202970;28;20060;-75
2022/04/11 21:20:15;;;;;;;18.50;8.07;;;;;;;;;;8202415;28;20546;-74
2022/04/11 21:24:18;;;;;;;14.32;7.72;;;;;;;;;;8202233;28;20063;-74
2022/04/11 21:28:21;;;;;;;15.60;7.95;;;;;;;;;;8202260;29;20053;-74
2022/04/11 21:32:24;;;;;;;17.23;9.35;;;;;;;;;;8202350;28;20047;-74
2022/04/11 21:36:29;;;;;;;19.75;9.55;;;;;;;;;;8202257;28;20521;-74
2022/04/11 21:40:31;;;;;;;80.53;31.83;;;;;;;;;;8210611;28;20543;-74
2022/04/11 21:44:35;;;;;;;27.42;13.65;;;;;;;;;;8233755;28;20051;-74
2022/04/11 21:48:38;;;;;;;19.40;9.35;;;;;;;;;;8231667;28;20058;-74
2022/04/11 21:52:42;;;;;;;18.63;9.45;;;;;;;;;;8231253;28;20050;-75
2022/04/11 21:56:44;;;;;;;13.13;7.55;;;;;;;;;;8231438;28;20043;-75
2022/04/11 22:00:53;;;;;;;12.77;7.28;;;;;;;;;;8227698;28;20043;-74
2022/04/11 22:04:56;;;;;;;14.85;7.68;;;;;;;;;;8219056;28;20079;-75
2022/04/11 22:09:00;;;;;;;17.45;9.02;;;;;;;;;;8227363;28;20062;-76
2022/04/11 22:13:03;;;;;;;18.58;9.98;;;;;;;;;;8230611;28;20042;-76
2022/04/11 22:17:06;;;;;;;20.75;10.50;;;;;;;;;;8234544;28;20106;-74
2022/04/11 22:21:09;;;;;;;18.00;9.35;;;;;;;;;;8238596;28;20051;-74
2022/04/11 22:25:14;;;;;;;13.57;7.75;;;;;;;;;;8236625;28;20051;-74
2022/04/11 22:29:16;;;;;;;10.73;6.60;;;;;;;;;;8236811;28;20570;-74
2022/04/11 22:33:19;;;;;;;11.27;6.88;;;;;;;;;;8232502;28;20038;-75
2022/04/11 22:37:22;;;;;;;19.05;7.68;;;;;;;;;;8226027;28;20047;-74
2022/04/11 22:41:27;;;;;;;20.38;9.82;;;;;;;;;;8226940;28;20081;-73
2022/04/11 22:45:30;;;;;;;16.25;8.45;;;;;;;;;;8237465;28;20047;-73
2022/04/11 22:49:33;;;;;;;15.23;7.78;;;;;;;;;;8237745;28;20089;-74
2022/04/11 22:53:35;;;;;;;12.57;7.72;;;;;;;;;;8237790;28;20046;-74
2022/04/11 22:57:40;;;;;;;25.38;12.07;;;;;;;;;;8238695;28;20058;-73
2022/04/11 23:01:43;;;;;;;22.50;11.02;;;;;;;;;;8243332;28;20055;-74
2022/04/11 23:05:46;;;;;;;17.90;10.20;;;;;;;;;;8270436;28;20046;-75
2022/04/11 23:09:48;;;;;;;13.63;7.93;;;;;;;;;;8270790;28;20205;-74
2022/04/11 23:13:52;;;;;;;12.48;7.35;;;;;;;;;;8248353;28;20495;-74
2022/04/11 23:17:55;;;;;;;15.48;7.60;;;;;;;;;;8237884;28;20066;-74
2022/04/11 23:21:58;;;;;;;14.50;8.57;;;;;;;;;;8237714;28;20053;-74
2022/04/11 23:26:00;;;;;;;18.17;9.15;;;;;;;;;;8237606;28;20054;-74
2022/04/11 23:30:06;;;;;;;15.98;8.73;;;;;;;;;;8237888;28;20498;-74
2022/04/11 23:34:09;;;;;;;29.02;14.88;;;;;;;;;;8237415;28;20057;-73
2022/04/11 23:38:11;;;;;;;80.30;24.92;;;;;;;;;;8235223;28;20042;-74
2022/04/11 23:42:14;;;;;;;20.15;9.98;;;;;;;;;;8232713;28;20487;-74
2022/04/11 23:46:19;;;;;;;14.80;7.35;;;;;;;;;;8237632;28;20057;-74
2022/04/11 23:50:22;;;;;;;12.43;7.00;;;;;;;;;;8237490;28;20534;-74
2022/04/11 23:54:24;;;;;;;14.85;7.68;;;;;;;;;;8237533;28;20418;-74
2022/04/11 23:58:27;;;;;;;67.82;21.92;;;;;;;;;;8236695;28;20054;-75
